Barkhamsted, Connecticut
Current Conditions -  °F | °C
As of 3:51 PM on Monday 22 Dec 2014 (Local Time) from KBDL Reporting Station
Overcast Overcast  
Wind Chill: 40°   Ceiling: 4500
Heat Index: 40°   Visibility: 10mi
Dew Point: 34°   Wind: 3mph
Humidity: 79%   Direction: 350°N
Pressure: 30.27"   Gusts: NA
Location:  41.9398°N, 72.9667°W
Report Text: KBDL 222051Z 35003KT 10SM FEW028 OVC045 04/01 A3027 RMK AO2 SLP253 T00440011 55010
Loading
Personal Weather Stations






























Interactive Weather Map New forecast layout! Learn more

10-Day Weather Forecast

Advertisements
Track Severe Weather on mobile